sensor_id;sensor_type;location;lat;lon;timestamp;P1;durP1;ratioP1;P2;durP2;ratioP2
70588;SDS011;58152;49.202;18.744;2023-03-24T00:02:18;24.90;;;14.65;;
70588;SDS011;58152;49.202;18.744;2023-03-24T00:04:46;17.55;;;13.23;;
70588;SDS011;58152;49.202;18.744;2023-03-24T00:07:17;16.77;;;12.73;;
70588;SDS011;58152;49.202;18.744;2023-03-24T00:09:45;20.02;;;14.65;;
70588;SDS011;58152;49.202;18.744;2023-03-24T00:12:12;20.48;;;14.50;;
70588;SDS011;58152;49.202;18.744;2023-03-24T00:14:38;17.83;;;14.15;;
70588;SDS011;58152;49.202;18.744;2023-03-24T00:17:05;21.13;;;13.70;;
70588;SDS011;58152;49.202;18.744;2023-03-24T00:19:33;19.17;;;14.52;;
70588;SDS011;58152;49.202;18.744;2023-03-24T00:22:02;20.67;;;15.23;;
70588;SDS011;58152;49.202;18.744;2023-03-24T00:24:32;19.08;;;14.65;;
70588;SDS011;58152;49.202;18.744;2023-03-24T00:26:58;20.38;;;14.95;;
70588;SDS011;58152;49.202;18.744;2023-03-24T00:29:25;23.30;;;15.15;;
70588;SDS011;58152;49.202;18.744;2023-03-24T00:31:51;24.17;;;15.38;;
70588;SDS011;58152;49.202;18.744;2023-03-24T00:34:18;22.45;;;16.55;;
70588;SDS011;58152;49.202;18.744;2023-03-24T00:36:47;26.05;;;19.50;;
70588;SDS011;58152;49.202;18.744;2023-03-24T00:39:15;26.98;;;18.88;;
70588;SDS011;58152;49.202;18.744;2023-03-24T00:41:42;21.70;;;15.95;;
70588;SDS011;58152;49.202;18.744;2023-03-24T00:44:09;19.98;;;15.05;;
70588;SDS011;58152;49.202;18.744;2023-03-24T00:46:48;21.27;;;14.80;;
70588;SDS011;58152;49.202;18.744;2023-03-24T00:49:20;22.63;;;15.18;;
70588;SDS011;58152;49.202;18.744;2023-03-24T00:52:10;21.70;;;14.68;;
70588;SDS011;58152;49.202;18.744;2023-03-24T00:54:38;21.40;;;15.90;;
70588;SDS011;58152;49.202;18.744;2023-03-24T00:57:05;19.38;;;15.13;;
70588;SDS011;58152;49.202;18.744;2023-03-24T00:59:36;22.30;;;14.70;;
70588;SDS011;58152;49.202;18.744;2023-03-24T01:02:09;21.02;;;15.82;;
70588;SDS011;58152;49.202;18.744;2023-03-24T01:04:38;20.92;;;17.10;;
70588;SDS011;58152;49.202;18.744;2023-03-24T01:07:05;20.05;;;15.27;;
70588;SDS011;58152;49.202;18.744;2023-03-24T01:09:32;21.25;;;15.23;;
70588;SDS011;58152;49.202;18.744;2023-03-24T01:12:00;20.60;;;16.45;;
70588;SDS011;58152;49.202;18.744;2023-03-24T01:14:28;22.75;;;16.45;;
70588;SDS011;58152;49.202;18.744;2023-03-24T01:16:54;25.67;;;17.30;;
70588;SDS011;58152;49.202;18.744;2023-03-24T01:19:20;23.17;;;16.20;;
70588;SDS011;58152;49.202;18.744;2023-03-24T01:21:46;20.48;;;15.68;;
70588;SDS011;58152;49.202;18.744;2023-03-24T01:24:15;22.52;;;16.38;;
70588;SDS011;58152;49.202;18.744;2023-03-24T01:26:41;20.48;;;15.75;;
70588;SDS011;58152;49.202;18.744;2023-03-24T01:29:07;22.33;;;15.57;;
70588;SDS011;58152;49.202;18.744;2023-03-24T01:31:33;19.55;;;13.82;;
70588;SDS011;58152;49.202;18.744;2023-03-24T01:33:58;20.33;;;14.80;;
70588;SDS011;58152;49.202;18.744;2023-03-24T01:36:24;20.08;;;14.20;;
70588;SDS011;58152;49.202;18.744;2023-03-24T01:38:49;19.60;;;13.85;;
70588;SDS011;58152;49.202;18.744;2023-03-24T01:41:15;16.85;;;14.00;;
70588;SDS011;58152;49.202;18.744;2023-03-24T01:43:42;18.40;;;14.95;;
70588;SDS011;58152;49.202;18.744;2023-03-24T01:46:15;17.17;;;13.48;;
70588;SDS011;58152;49.202;18.744;2023-03-24T01:49:24;16.35;;;12.63;;
70588;SDS011;58152;49.202;18.744;2023-03-24T01:51:33;21.08;;;13.60;;
70588;SDS011;58152;49.202;18.744;2023-03-24T01:54:03;17.92;;;14.02;;
70588;SDS011;58152;49.202;18.744;2023-03-24T01:56:36;19.13;;;14.32;;
70588;SDS011;58152;49.202;18.744;2023-03-24T01:59:08;17.77;;;14.07;;
70588;SDS011;58152;49.202;18.744;2023-03-24T02:01:36;17.17;;;13.02;;
70588;SDS011;58152;49.202;18.744;2023-03-24T02:04:04;18.85;;;14.02;;
70588;SDS011;58152;49.202;18.744;2023-03-24T02:06:31;17.83;;;13.60;;
70588;SDS011;58152;49.202;18.744;2023-03-24T02:08:59;17.92;;;13.50;;
70588;SDS011;58152;49.202;18.744;2023-03-24T02:11:28;19.13;;;14.45;;
70588;SDS011;58152;49.202;18.744;2023-03-24T02:13:55;17.17;;;13.60;;
70588;SDS011;58152;49.202;18.744;2023-03-24T02:22:22;17.00;;;12.95;;
70588;SDS011;58152;49.202;18.744;2023-03-24T02:28:03;15.52;;;12.18;;
70588;SDS011;58152;49.202;18.744;2023-03-24T02:46:29;14.70;;;11.80;;
70588;SDS011;58152;49.202;18.744;2023-03-24T02:54:38;17.02;;;12.32;;
70588;SDS011;58152;49.202;18.744;2023-03-24T02:59:48;16.13;;;11.85;;
70588;SDS011;58152;49.202;18.744;2023-03-24T03:02:19;15.50;;;12.05;;
70588;SDS011;58152;49.202;18.744;2023-03-24T03:04:53;17.70;;;12.90;;
70588;SDS011;58152;49.202;18.744;2023-03-24T03:07:23;17.83;;;12.57;;
70588;SDS011;58152;49.202;18.744;2023-03-24T03:09:54;16.30;;;12.52;;
70588;SDS011;58152;49.202;18.744;2023-03-24T03:12:23;15.95;;;11.88;;
70588;SDS011;58152;49.202;18.744;2023-03-24T03:14:51;18.80;;;12.73;;
70588;SDS011;58152;49.202;18.744;2023-03-24T03:17:23;15.13;;;11.60;;
70588;SDS011;58152;49.202;18.744;2023-03-24T03:19:55;12.98;;;10.85;;
70588;SDS011;58152;49.202;18.744;2023-03-24T03:22:30;16.67;;;12.10;;
70588;SDS011;58152;49.202;18.744;2023-03-24T03:25:02;15.35;;;12.18;;
70588;SDS011;58152;49.202;18.744;2023-03-24T03:27:29;17.48;;;13.05;;
70588;SDS011;58152;49.202;18.744;2023-03-24T03:30:04;16.92;;;12.27;;
70588;SDS011;58152;49.202;18.744;2023-03-24T03:32:41;16.75;;;11.30;;
70588;SDS011;58152;49.202;18.744;2023-03-24T03:35:22;14.35;;;11.20;;
70588;SDS011;58152;49.202;18.744;2023-03-24T03:37:51;17.02;;;12.85;;
70588;SDS011;58152;49.202;18.744;2023-03-24T03:40:21;14.25;;;12.75;;
70588;SDS011;58152;49.202;18.744;2023-03-24T03:42:51;14.02;;;12.10;;
70588;SDS011;58152;49.202;18.744;2023-03-24T03:45:17;16.17;;;11.45;;
70588;SDS011;58152;49.202;18.744;2023-03-24T03:47:43;17.65;;;12.70;;
70588;SDS011;58152;49.202;18.744;2023-03-24T03:50:10;14.32;;;11.32;;
70588;SDS011;58152;49.202;18.744;2023-03-24T03:52:36;15.40;;;11.82;;
70588;SDS011;58152;49.202;18.744;2023-03-24T03:55:03;15.50;;;12.82;;
70588;SDS011;58152;49.202;18.744;2023-03-24T03:57:30;14.30;;;11.32;;
70588;SDS011;58152;49.202;18.744;2023-03-24T03:59:57;13.38;;;11.77;;
70588;SDS011;58152;49.202;18.744;2023-03-24T04:05:15;14.48;;;12.07;;
70588;SDS011;58152;49.202;18.744;2023-03-24T04:11:29;12.18;;;10.15;;
70588;SDS011;58152;49.202;18.744;2023-03-24T04:22:29;16.15;;;11.80;;
70588;SDS011;58152;49.202;18.744;2023-03-24T04:30:09;15.35;;;11.63;;
70588;SDS011;58152;49.202;18.744;2023-03-24T04:36:09;13.48;;;10.35;;
70588;SDS011;58152;49.202;18.744;2023-03-24T04:38:15;13.50;;;9.60;;
70588;SDS011;58152;49.202;18.744;2023-03-24T04:40:49;12.82;;;10.77;;
70588;SDS011;58152;49.202;18.744;2023-03-24T04:43:19;12.77;;;9.88;;
70588;SDS011;58152;49.202;18.744;2023-03-24T04:45:49;14.52;;;10.68;;
70588;SDS011;58152;49.202;18.744;2023-03-24T04:48:16;14.50;;;10.55;;
70588;SDS011;58152;49.202;18.744;2023-03-24T04:50:51;15.15;;;11.52;;
70588;SDS011;58152;49.202;18.744;2023-03-24T04:53:21;15.90;;;11.45;;
70588;SDS011;58152;49.202;18.744;2023-03-24T04:58:31;11.13;;;9.73;;
70588;SDS011;58152;49.202;18.744;2023-03-24T05:00:57;12.13;;;9.15;;
70588;SDS011;58152;49.202;18.744;2023-03-24T05:03:22;12.18;;;9.98;;
70588;SDS011;58152;49.202;18.744;2023-03-24T05:05:49;13.77;;;9.88;;
70588;SDS011;58152;49.202;18.744;2023-03-24T05:08:16;12.13;;;9.88;;
70588;SDS011;58152;49.202;18.744;2023-03-24T05:10:43;10.50;;;9.10;;
70588;SDS011;58152;49.202;18.744;2023-03-24T05:13:09;11.82;;;9.63;;
70588;SDS011;58152;49.202;18.744;2023-03-24T05:15:35;12.60;;;9.63;;
70588;SDS011;58152;49.202;18.744;2023-03-24T05:18:00;13.55;;;8.43;;
70588;SDS011;58152;49.202;18.744;2023-03-24T05:20:26;13.30;;;10.30;;
70588;SDS011;58152;49.202;18.744;2023-03-24T05:22:54;15.07;;;10.15;;
70588;SDS011;58152;49.202;18.744;2023-03-24T05:25:20;11.80;;;9.75;;
70588;SDS011;58152;49.202;18.744;2023-03-24T05:27:45;12.73;;;10.68;;
70588;SDS011;58152;49.202;18.744;2023-03-24T05:30:11;12.30;;;9.65;;
70588;SDS011;58152;49.202;18.744;2023-03-24T05:32:40;11.82;;;9.85;;
70588;SDS011;58152;49.202;18.744;2023-03-24T05:35:06;13.35;;;10.48;;
70588;SDS011;58152;49.202;18.744;2023-03-24T05:37:32;12.95;;;10.27;;
70588;SDS011;58152;49.202;18.744;2023-03-24T05:39:57;12.07;;;9.32;;
70588;SDS011;58152;49.202;18.744;2023-03-24T05:42:23;11.50;;;9.90;;
70588;SDS011;58152;49.202;18.744;2023-03-24T05:44:49;14.43;;;10.18;;
70588;SDS011;58152;49.202;18.744;2023-03-24T05:47:14;14.77;;;9.98;;
70588;SDS011;58152;49.202;18.744;2023-03-24T05:49:43;13.35;;;10.68;;
70588;SDS011;58152;49.202;18.744;2023-03-24T05:52:09;15.43;;;11.43;;
70588;SDS011;58152;49.202;18.744;2023-03-24T05:54:35;16.63;;;12.43;;
70588;SDS011;58152;49.202;18.744;2023-03-24T05:57:03;17.02;;;13.00;;
70588;SDS011;58152;49.202;18.744;2023-03-24T05:59:35;22.77;;;16.25;;
70588;SDS011;58152;49.202;18.744;2023-03-24T06:02:02;21.00;;;15.90;;
70588;SDS011;58152;49.202;18.744;2023-03-24T06:04:27;19.10;;;15.23;;
70588;SDS011;58152;49.202;18.744;2023-03-24T06:06:57;17.20;;;14.00;;
70588;SDS011;58152;49.202;18.744;2023-03-24T06:09:27;19.63;;;13.43;;
70588;SDS011;58152;49.202;18.744;2023-03-24T06:11:54;16.08;;;12.10;;
70588;SDS011;58152;49.202;18.744;2023-03-24T06:14:20;14.60;;;12.40;;
70588;SDS011;58152;49.202;18.744;2023-03-24T06:16:45;15.40;;;11.40;;
70588;SDS011;58152;49.202;18.744;2023-03-24T06:19:14;14.65;;;12.18;;
70588;SDS011;58152;49.202;18.744;2023-03-24T06:21:40;16.55;;;13.80;;
70588;SDS011;58152;49.202;18.744;2023-03-24T06:24:06;17.02;;;12.70;;
70588;SDS011;58152;49.202;18.744;2023-03-24T06:26:31;14.82;;;13.30;;
70588;SDS011;58152;49.202;18.744;2023-03-24T06:28:57;15.65;;;12.57;;
70588;SDS011;58152;49.202;18.744;2023-03-24T06:31:23;16.38;;;12.57;;
70588;SDS011;58152;49.202;18.744;2023-03-24T06:33:51;17.02;;;13.55;;
70588;SDS011;58152;49.202;18.744;2023-03-24T06:36:17;16.42;;;14.00;;
70588;SDS011;58152;49.202;18.744;2023-03-24T06:38:43;19.33;;;13.55;;
70588;SDS011;58152;49.202;18.744;2023-03-24T06:41:10;15.50;;;12.45;;
70588;SDS011;58152;49.202;18.744;2023-03-24T06:43:36;16.40;;;11.48;;
70588;SDS011;58152;49.202;18.744;2023-03-24T06:46:02;14.98;;;10.82;;
70588;SDS011;58152;49.202;18.744;2023-03-24T06:48:27;12.68;;;9.90;;
70588;SDS011;58152;49.202;18.744;2023-03-24T06:50:53;14.30;;;9.82;;
70588;SDS011;58152;49.202;18.744;2023-03-24T06:53:19;13.65;;;10.02;;
70588;SDS011;58152;49.202;18.744;2023-03-24T06:55:49;13.75;;;9.75;;
70588;SDS011;58152;49.202;18.744;2023-03-24T06:58:15;15.73;;;10.48;;
70588;SDS011;58152;49.202;18.744;2023-03-24T07:00:42;13.40;;;9.48;;
70588;SDS011;58152;49.202;18.744;2023-03-24T07:03:08;13.75;;;10.02;;
70588;SDS011;58152;49.202;18.744;2023-03-24T07:05:38;12.15;;;9.38;;
70588;SDS011;58152;49.202;18.744;2023-03-24T07:08:04;12.32;;;9.32;;
70588;SDS011;58152;49.202;18.744;2023-03-24T07:10:29;12.98;;;10.38;;
70588;SDS011;58152;49.202;18.744;2023-03-24T07:12:55;14.73;;;10.77;;
70588;SDS011;58152;49.202;18.744;2023-03-24T07:15:21;14.82;;;11.85;;
70588;SDS011;58152;49.202;18.744;2023-03-24T07:17:47;14.75;;;11.70;;
70588;SDS011;58152;49.202;18.744;2023-03-24T07:20:12;16.20;;;13.13;;
70588;SDS011;58152;49.202;18.744;2023-03-24T07:22:38;17.75;;;13.13;;
70588;SDS011;58152;49.202;18.744;2023-03-24T07:25:04;13.93;;;12.30;;
70588;SDS011;58152;49.202;18.744;2023-03-24T07:27:30;16.05;;;12.77;;
70588;SDS011;58152;49.202;18.744;2023-03-24T07:30:00;14.98;;;12.68;;
70588;SDS011;58152;49.202;18.744;2023-03-24T07:32:28;16.08;;;12.60;;
70588;SDS011;58152;49.202;18.744;2023-03-24T07:34:58;15.68;;;12.43;;
70588;SDS011;58152;49.202;18.744;2023-03-24T07:37:24;15.50;;;12.48;;
70588;SDS011;58152;49.202;18.744;2023-03-24T07:39:50;18.55;;;13.10;;
70588;SDS011;58152;49.202;18.744;2023-03-24T07:42:15;15.18;;;12.00;;
70588;SDS011;58152;49.202;18.744;2023-03-24T07:44:40;14.55;;;12.35;;
70588;SDS011;58152;49.202;18.744;2023-03-24T07:47:06;12.75;;;11.02;;
70588;SDS011;58152;49.202;18.744;2023-03-24T07:49:31;12.07;;;10.35;;
70588;SDS011;58152;49.202;18.744;2023-03-24T07:51:57;11.43;;;9.80;;
70588;SDS011;58152;49.202;18.744;2023-03-24T07:54:23;16.10;;;11.18;;
70588;SDS011;58152;49.202;18.744;2023-03-24T07:56:49;14.73;;;11.75;;
70588;SDS011;58152;49.202;18.744;2023-03-24T07:59:14;14.38;;;11.70;;
70588;SDS011;58152;49.202;18.744;2023-03-24T08:01:41;13.00;;;11.07;;
70588;SDS011;58152;49.202;18.744;2023-03-24T08:04:08;16.63;;;12.20;;
70588;SDS011;58152;49.202;18.744;2023-03-24T08:06:36;13.60;;;11.52;;
70588;SDS011;58152;49.202;18.744;2023-03-24T08:09:01;14.35;;;11.90;;
70588;SDS011;58152;49.202;18.744;2023-03-24T08:11:26;13.07;;;11.50;;
70588;SDS011;58152;49.202;18.744;2023-03-24T08:13:54;15.32;;;13.68;;
70588;SDS011;58152;49.202;18.744;2023-03-24T08:16:20;12.60;;;10.35;;
70588;SDS011;58152;49.202;18.744;2023-03-24T08:18:45;18.50;;;11.68;;
70588;SDS011;58152;49.202;18.744;2023-03-24T08:21:12;13.98;;;11.10;;
70588;SDS011;58152;49.202;18.744;2023-03-24T08:23:38;12.80;;;11.32;;
70588;SDS011;58152;49.202;18.744;2023-03-24T08:26:04;14.20;;;10.98;;
70588;SDS011;58152;49.202;18.744;2023-03-24T08:28:31;12.18;;;10.63;;
70588;SDS011;58152;49.202;18.744;2023-03-24T08:30:57;12.68;;;10.95;;
70588;SDS011;58152;49.202;18.744;2023-03-24T08:33:22;13.80;;;11.23;;
70588;SDS011;58152;49.202;18.744;2023-03-24T08:35:48;13.70;;;11.10;;
70588;SDS011;58152;49.202;18.744;2023-03-24T08:38:13;12.45;;;10.85;;
70588;SDS011;58152;49.202;18.744;2023-03-24T08:40:41;12.25;;;10.00;;
70588;SDS011;58152;49.202;18.744;2023-03-24T08:43:07;11.90;;;10.30;;
70588;SDS011;58152;49.202;18.744;2023-03-24T08:45:36;11.77;;;10.35;;
70588;SDS011;58152;49.202;18.744;2023-03-24T08:48:03;12.80;;;10.55;;
70588;SDS011;58152;49.202;18.744;2023-03-24T08:50:34;11.50;;;9.82;;
70588;SDS011;58152;49.202;18.744;2023-03-24T08:53:01;9.63;;;8.65;;
70588;SDS011;58152;49.202;18.744;2023-03-24T08:55:28;11.13;;;9.50;;
70588;SDS011;58152;49.202;18.744;2023-03-24T08:57:54;10.57;;;9.48;;
70588;SDS011;58152;49.202;18.744;2023-03-24T09:00:20;11.02;;;9.68;;
70588;SDS011;58152;49.202;18.744;2023-03-24T09:02:53;11.23;;;9.77;;
70588;SDS011;58152;49.202;18.744;2023-03-24T09:05:20;12.35;;;9.50;;
70588;SDS011;58152;49.202;18.744;2023-03-24T09:07:48;10.30;;;9.23;;
70588;SDS011;58152;49.202;18.744;2023-03-24T09:10:15;10.60;;;9.50;;
70588;SDS011;58152;49.202;18.744;2023-03-24T09:12:41;13.70;;;10.88;;
70588;SDS011;58152;49.202;18.744;2023-03-24T09:15:08;13.02;;;9.88;;
70588;SDS011;58152;49.202;18.744;2023-03-24T09:17:35;12.60;;;10.63;;
70588;SDS011;58152;49.202;18.744;2023-03-24T09:20:01;12.13;;;10.80;;
70588;SDS011;58152;49.202;18.744;2023-03-24T09:22:36;11.00;;;9.80;;
70588;SDS011;58152;49.202;18.744;2023-03-24T09:25:06;11.30;;;9.40;;
70588;SDS011;58152;49.202;18.744;2023-03-24T09:27:32;14.38;;;9.32;;
70588;SDS011;58152;49.202;18.744;2023-03-24T09:29:57;10.27;;;8.68;;
70588;SDS011;58152;49.202;18.744;2023-03-24T09:32:23;10.40;;;8.05;;
70588;SDS011;58152;49.202;18.744;2023-03-24T09:34:48;14.07;;;8.05;;
70588;SDS011;58152;49.202;18.744;2023-03-24T09:37:14;10.20;;;7.05;;
70588;SDS011;58152;49.202;18.744;2023-03-24T09:39:40;9.75;;;7.18;;
70588;SDS011;58152;49.202;18.744;2023-03-24T09:42:05;6.90;;;6.22;;
70588;SDS011;58152;49.202;18.744;2023-03-24T09:44:36;6.43;;;5.65;;
70588;SDS011;58152;49.202;18.744;2023-03-24T09:49:42;7.88;;;5.80;;
70588;SDS011;58152;49.202;18.744;2023-03-24T09:52:09;7.43;;;4.88;;
70588;SDS011;58152;49.202;18.744;2023-03-24T09:54:43;6.18;;;5.35;;
70588;SDS011;58152;49.202;18.744;2023-03-24T09:57:47;6.68;;;4.88;;
70588;SDS011;58152;49.202;18.744;2023-03-24T10:00:14;6.55;;;4.80;;
70588;SDS011;58152;49.202;18.744;2023-03-24T10:02:45;5.38;;;4.30;;
70588;SDS011;58152;49.202;18.744;2023-03-24T10:05:12;5.47;;;4.82;;
70588;SDS011;58152;49.202;18.744;2023-03-24T10:07:46;5.40;;;4.60;;
70588;SDS011;58152;49.202;18.744;2023-03-24T10:12:58;6.32;;;5.30;;
70588;SDS011;58152;49.202;18.744;2023-03-24T10:15:43;5.60;;;4.20;;
70588;SDS011;58152;49.202;18.744;2023-03-24T10:28:44;3.90;;;3.17;;
70588;SDS011;58152;49.202;18.744;2023-03-24T10:31:18;4.40;;;3.25;;
70588;SDS011;58152;49.202;18.744;2023-03-24T10:33:52;4.32;;;3.13;;
70588;SDS011;58152;49.202;18.744;2023-03-24T10:36:21;3.83;;;2.90;;
70588;SDS011;58152;49.202;18.744;2023-03-24T10:38:49;3.78;;;3.10;;
70588;SDS011;58152;49.202;18.744;2023-03-24T10:41:22;2.55;;;2.35;;
70588;SDS011;58152;49.202;18.744;2023-03-24T10:43:50;4.30;;;2.67;;
70588;SDS011;58152;49.202;18.744;2023-03-24T10:46:19;3.00;;;2.38;;
70588;SDS011;58152;49.202;18.744;2023-03-24T10:48:47;4.03;;;2.47;;
70588;SDS011;58152;49.202;18.744;2023-03-24T10:51:16;4.47;;;3.10;;
70588;SDS011;58152;49.202;18.744;2023-03-24T10:53:44;3.25;;;2.95;;
70588;SDS011;58152;49.202;18.744;2023-03-24T10:56:16;4.05;;;2.78;;
70588;SDS011;58152;49.202;18.744;2023-03-24T10:59:02;4.70;;;3.53;;
70588;SDS011;58152;49.202;18.744;2023-03-24T11:01:42;3.60;;;2.92;;
70588;SDS011;58152;49.202;18.744;2023-03-24T11:04:08;3.80;;;2.80;;
70588;SDS011;58152;49.202;18.744;2023-03-24T11:06:51;4.75;;;2.97;;
70588;SDS011;58152;49.202;18.744;2023-03-24T11:09:21;3.20;;;2.60;;
70588;SDS011;58152;49.202;18.744;2023-03-24T11:11:47;3.70;;;2.28;;
70588;SDS011;58152;49.202;18.744;2023-03-24T11:14:27;4.43;;;3.17;;
70588;SDS011;58152;49.202;18.744;2023-03-24T11:17:00;4.57;;;3.03;;
70588;SDS011;58152;49.202;18.744;2023-03-24T11:19:34;3.67;;;2.65;;
70588;SDS011;58152;49.202;18.744;2023-03-24T11:22:01;5.18;;;3.47;;
70588;SDS011;58152;49.202;18.744;2023-03-24T11:24:30;5.28;;;2.88;;
70588;SDS011;58152;49.202;18.744;2023-03-24T11:27:00;4.45;;;3.00;;
70588;SDS011;58152;49.202;18.744;2023-03-24T11:29:28;3.67;;;3.35;;
70588;SDS011;58152;49.202;18.744;2023-03-24T11:31:57;3.85;;;2.75;;
70588;SDS011;58152;49.202;18.744;2023-03-24T11:34:27;4.45;;;2.75;;
70588;SDS011;58152;49.202;18.744;2023-03-24T11:37:20;3.90;;;2.85;;
70588;SDS011;58152;49.202;18.744;2023-03-24T11:40:13;3.17;;;2.80;;
70588;SDS011;58152;49.202;18.744;2023-03-24T11:48:00;2.60;;;2.20;;
70588;SDS011;58152;49.202;18.744;2023-03-24T11:50:29;2.38;;;2.17;;
70588;SDS011;58152;49.202;18.744;2023-03-24T11:55:43;2.03;;;1.80;;
70588;SDS011;58152;49.202;18.744;2023-03-24T11:58:25;2.70;;;1.90;;
70588;SDS011;58152;49.202;18.744;2023-03-24T12:06:27;2.33;;;1.65;;
70588;SDS011;58152;49.202;18.744;2023-03-24T12:09:19;3.83;;;3.13;;
70588;SDS011;58152;49.202;18.744;2023-03-24T12:17:20;3.60;;;1.70;;
70588;SDS011;58152;49.202;18.744;2023-03-24T12:39:27;2.45;;;1.88;;
70588;SDS011;58152;49.202;18.744;2023-03-24T12:57:34;2.28;;;2.03;;
70588;SDS011;58152;49.202;18.744;2023-03-24T13:00:17;2.92;;;2.13;;
70588;SDS011;58152;49.202;18.744;2023-03-24T13:02:46;2.33;;;2.13;;
70588;SDS011;58152;49.202;18.744;2023-03-24T13:05:19;2.30;;;2.10;;
70588;SDS011;58152;49.202;18.744;2023-03-24T13:07:49;2.35;;;2.15;;
70588;SDS011;58152;49.202;18.744;2023-03-24T13:10:23;1.80;;;1.70;;
70588;SDS011;58152;49.202;18.744;2023-03-24T13:13:01;2.33;;;1.92;;
70588;SDS011;58152;49.202;18.744;2023-03-24T13:15:33;3.78;;;2.17;;
70588;SDS011;58152;49.202;18.744;2023-03-24T13:26:35;2.20;;;2.00;;
70588;SDS011;58152;49.202;18.744;2023-03-24T13:37:54;2.15;;;1.95;;
70588;SDS011;58152;49.202;18.744;2023-03-24T13:40:23;3.67;;;2.20;;
70588;SDS011;58152;49.202;18.744;2023-03-24T13:42:57;2.45;;;2.20;;
70588;SDS011;58152;49.202;18.744;2023-03-24T13:45:43;2.78;;;2.40;;
70588;SDS011;58152;49.202;18.744;2023-03-24T13:50:41;2.40;;;2.20;;
70588;SDS011;58152;49.202;18.744;2023-03-24T13:53:16;3.45;;;2.42;;
70588;SDS011;58152;49.202;18.744;2023-03-24T13:55:46;2.33;;;1.98;;
70588;SDS011;58152;49.202;18.744;2023-03-24T13:58:24;4.55;;;2.50;;
70588;SDS011;58152;49.202;18.744;2023-03-24T14:03:43;3.22;;;2.40;;
70588;SDS011;58152;49.202;18.744;2023-03-24T14:06:10;2.92;;;2.63;;
70588;SDS011;58152;49.202;18.744;2023-03-24T14:14:16;4.13;;;2.78;;
70588;SDS011;58152;49.202;18.744;2023-03-24T14:24:35;3.97;;;3.00;;
70588;SDS011;58152;49.202;18.744;2023-03-24T14:27:19;2.80;;;2.60;;
70588;SDS011;58152;49.202;18.744;2023-03-24T14:29:54;3.55;;;2.78;;
70588;SDS011;58152;49.202;18.744;2023-03-24T14:32:26;3.05;;;2.53;;
70588;SDS011;58152;49.202;18.744;2023-03-24T14:34:52;2.90;;;2.58;;
70588;SDS011;58152;49.202;18.744;2023-03-24T14:37:21;3.25;;;2.42;;
70588;SDS011;58152;49.202;18.744;2023-03-24T14:39:47;2.97;;;2.63;;
70588;SDS011;58152;49.202;18.744;2023-03-24T14:44:56;4.90;;;2.92;;
70588;SDS011;58152;49.202;18.744;2023-03-24T14:47:56;3.92;;;2.75;;
70588;SDS011;58152;49.202;18.744;2023-03-24T14:50:24;3.95;;;2.70;;
70588;SDS011;58152;49.202;18.744;2023-03-24T14:52:51;3.78;;;3.42;;
70588;SDS011;58152;49.202;18.744;2023-03-24T14:55:21;4.55;;;3.47;;
70588;SDS011;58152;49.202;18.744;2023-03-24T14:57:51;3.97;;;3.40;;
70588;SDS011;58152;49.202;18.744;2023-03-24T15:02:52;4.03;;;2.97;;
70588;SDS011;58152;49.202;18.744;2023-03-24T15:05:29;4.75;;;2.60;;
70588;SDS011;58152;49.202;18.744;2023-03-24T15:13:38;4.95;;;2.97;;
70588;SDS011;58152;49.202;18.744;2023-03-24T15:16:16;3.13;;;2.75;;
70588;SDS011;58152;49.202;18.744;2023-03-24T15:18:48;3.35;;;2.63;;
70588;SDS011;58152;49.202;18.744;2023-03-24T15:24:23;4.43;;;2.88;;
70588;SDS011;58152;49.202;18.744;2023-03-24T15:27:07;4.05;;;2.90;;
70588;SDS011;58152;49.202;18.744;2023-03-24T15:29:42;4.20;;;3.40;;
70588;SDS011;58152;49.202;18.744;2023-03-24T15:32:19;5.00;;;3.25;;
70588;SDS011;58152;49.202;18.744;2023-03-24T15:34:50;3.17;;;2.50;;
70588;SDS011;58152;49.202;18.744;2023-03-24T15:37:30;2.90;;;2.50;;
70588;SDS011;58152;49.202;18.744;2023-03-24T15:39:58;3.83;;;3.40;;
70588;SDS011;58152;49.202;18.744;2023-03-24T15:42:24;3.78;;;2.83;;
70588;SDS011;58152;49.202;18.744;2023-03-24T15:44:50;3.30;;;2.83;;
70588;SDS011;58152;49.202;18.744;2023-03-24T15:57:39;3.78;;;2.97;;
70588;SDS011;58152;49.202;18.744;2023-03-24T16:00:15;3.30;;;3.10;;
70588;SDS011;58152;49.202;18.744;2023-03-24T16:02:50;4.10;;;3.08;;
70588;SDS011;58152;49.202;18.744;2023-03-24T16:05:19;6.60;;;3.83;;
70588;SDS011;58152;49.202;18.744;2023-03-24T16:07:53;6.22;;;4.95;;
70588;SDS011;58152;49.202;18.744;2023-03-24T16:15:47;4.75;;;3.30;;
70588;SDS011;58152;49.202;18.744;2023-03-24T16:18:18;3.85;;;3.15;;
70588;SDS011;58152;49.202;18.744;2023-03-24T16:20:47;6.43;;;4.63;;
70588;SDS011;58152;49.202;18.744;2023-03-24T16:23:15;6.32;;;5.32;;
70588;SDS011;58152;49.202;18.744;2023-03-24T16:25:41;5.82;;;5.20;;
70588;SDS011;58152;49.202;18.744;2023-03-24T16:28:11;5.47;;;4.93;;
70588;SDS011;58152;49.202;18.744;2023-03-24T16:30:40;6.53;;;5.47;;
70588;SDS011;58152;49.202;18.744;2023-03-24T16:33:07;6.97;;;4.75;;
70588;SDS011;58152;49.202;18.744;2023-03-24T16:35:33;6.20;;;5.32;;
70588;SDS011;58152;49.202;18.744;2023-03-24T16:37:59;5.18;;;4.68;;
70588;SDS011;58152;49.202;18.744;2023-03-24T16:40:38;5.60;;;4.97;;
70588;SDS011;58152;49.202;18.744;2023-03-24T16:43:08;6.00;;;5.40;;
70588;SDS011;58152;49.202;18.744;2023-03-24T16:45:34;7.45;;;6.10;;
70588;SDS011;58152;49.202;18.744;2023-03-24T16:48:00;5.70;;;4.93;;
70588;SDS011;58152;49.202;18.744;2023-03-24T16:53:05;8.75;;;4.97;;
70588;SDS011;58152;49.202;18.744;2023-03-24T16:55:33;6.43;;;5.68;;
70588;SDS011;58152;49.202;18.744;2023-03-24T16:58:02;7.35;;;5.55;;
70588;SDS011;58152;49.202;18.744;2023-03-24T17:00:31;5.68;;;4.97;;
70588;SDS011;58152;49.202;18.744;2023-03-24T17:03:01;6.60;;;4.78;;
70588;SDS011;58152;49.202;18.744;2023-03-24T17:05:29;7.95;;;4.95;;
70588;SDS011;58152;49.202;18.744;2023-03-24T17:07:59;6.20;;;4.32;;
70588;SDS011;58152;49.202;18.744;2023-03-24T17:10:30;6.78;;;4.82;;
70588;SDS011;58152;49.202;18.744;2023-03-24T17:12:56;6.28;;;5.30;;
70588;SDS011;58152;49.202;18.744;2023-03-24T17:15:26;6.57;;;5.00;;
70588;SDS011;58152;49.202;18.744;2023-03-24T17:17:53;7.47;;;5.47;;
70588;SDS011;58152;49.202;18.744;2023-03-24T17:20:20;6.95;;;5.13;;
70588;SDS011;58152;49.202;18.744;2023-03-24T17:22:47;8.25;;;5.78;;
70588;SDS011;58152;49.202;18.744;2023-03-24T17:25:19;6.45;;;5.43;;
70588;SDS011;58152;49.202;18.744;2023-03-24T17:27:49;7.35;;;6.05;;
70588;SDS011;58152;49.202;18.744;2023-03-24T17:30:17;6.82;;;6.07;;
70588;SDS011;58152;49.202;18.744;2023-03-24T17:32:43;10.90;;;7.50;;
70588;SDS011;58152;49.202;18.744;2023-03-24T17:41:20;7.53;;;6.72;;
70588;SDS011;58152;49.202;18.744;2023-03-24T17:43:45;9.15;;;6.72;;
70588;SDS011;58152;49.202;18.744;2023-03-24T17:49:52;7.32;;;6.60;;
70588;SDS011;58152;49.202;18.744;2023-03-24T17:52:17;7.82;;;6.05;;
70588;SDS011;58152;49.202;18.744;2023-03-24T18:12:08;6.82;;;5.72;;
70588;SDS011;58152;49.202;18.744;2023-03-24T18:14:34;8.23;;;6.10;;
70588;SDS011;58152;49.202;18.744;2023-03-24T18:17:00;7.75;;;6.20;;
70588;SDS011;58152;49.202;18.744;2023-03-24T18:19:25;7.07;;;6.13;;